Time;durP1;ratioP1;P1;durP2;ratioP2;P2;SDS_P1;SDS_P2;PMS_P1;PMS_P2;Temp;Humidity;BMP_temperature;BMP_pressure;BME280_temperature;BME280_humidity;BME280_pressure;Samples;Min_cycle;Max_cycle;Signal;HPM_P1;HPM_P2
2021/03/18 00:00:56;;;;;;;;;;;;;;;22.06;38.55;103015.06;3111626;28;115842;-54
2021/03/18 00:02:28;;;;;;;;;;;;;;;22.06;38.41;103006.63;3098872;28;115902;-55
2021/03/18 00:04:04;;;;;;;;;;;;;;;22.04;38.63;103002.38;3092518;28;113797;-56
2021/03/18 00:05:37;;;;;;;;;;;;;;;22.04;38.47;103008.00;3095763;28;113845;-54
2021/03/18 00:07:09;;;;;;;;;;;;;;;22.02;38.57;103002.66;3117692;27;113805;-56
2021/03/18 00:08:44;;;;;;;;;;;;;;;22.03;38.36;103009.13;3095732;28;113750;-56
2021/03/18 00:10:16;;;;;;;;;;;;;;;22.01;38.25;103012.22;3087448;28;113814;-55
2021/03/18 00:11:52;;;;;;;;;;;;;;;21.99;38.14;103011.63;3090694;28;113925;-55
2021/03/18 00:13:25;;;;;;;;;;;;;;;21.98;38.26;103014.72;3090908;28;114051;-54
2021/03/18 00:14:57;;;;;;;;;;;;;;;21.98;38.35;103009.94;3098157;28;114097;-55
2021/03/18 00:16:29;;;;;;;;;;;;;;;21.97;38.23;103010.19;3091376;28;113824;-55
2021/03/18 00:18:00;;;;;;;;;;;;;;;21.96;38.16;103008.50;3088015;28;113921;-56
2021/03/18 00:19:32;;;;;;;;;;;;;;;21.95;38.27;103009.59;3093623;28;113680;-56
2021/03/18 00:21:03;;;;;;;;;;;;;;;21.94;38.10;103002.31;3091899;28;114141;-55
2021/03/18 00:22:37;;;;;;;;;;;;;;;21.93;38.03;102998.63;3096898;28;113885;-56
2021/03/18 00:24:09;;;;;;;;;;;;;;;21.91;38.26;102998.00;3087563;28;113695;-56
2021/03/18 00:25:42;;;;;;;;;;;;;;;21.89;38.49;102999.41;3098937;28;115205;-55
2021/03/18 00:27:13;;;;;;;;;;;;;;;21.90;38.31;102992.63;3092031;28;115376;-55
2021/03/18 00:28:45;;;;;;;;;;;;;;;21.88;38.35;103003.31;3099266;28;115456;-56
2021/03/18 00:30:18;;;;;;;;;;;;;;;21.87;38.43;102996.00;3100237;28;115437;-55
2021/03/18 00:31:49;;;;;;;;;;;;;;;21.86;38.51;103000.78;3082439;28;115030;-56
2021/03/18 00:33:24;;;;;;;;;;;;;;;21.85;38.34;103003.88;3102638;28;115899;-55
2021/03/18 00:34:55;;;;;;;;;;;;;;;21.83;38.26;103003.28;3116793;27;115111;-54
2021/03/18 00:36:26;;;;;;;;;;;;;;;21.82;38.35;103001.56;3102132;28;115083;-54
2021/03/18 00:38:01;;;;;;;;;;;;;;;21.80;38.24;102995.38;3090493;28;115139;-56
2021/03/18 00:39:32;;;;;;;;;;;;;;;21.78;38.22;102975.94;3087002;28;115435;-55
2021/03/18 00:41:05;;;;;;;;;;;;;;;21.77;38.20;102973.38;3087430;28;115527;-56
2021/03/18 00:42:40;;;;;;;;;;;;;;;21.77;38.22;102970.56;3096908;28;115300;-56
2021/03/18 00:44:11;;;;;;;;;;;;;;;21.76;38.50;102971.72;3086354;28;115069;-56
2021/03/18 00:45:45;;;;;;;;;;;;;;;21.74;38.34;102980.41;3123336;27;115117;-56
2021/03/18 00:47:17;;;;;;;;;;;;;;;21.71;38.62;102984.59;3105257;27;116041;-55
2021/03/18 00:48:49;;;;;;;;;;;;;;;21.70;38.31;102968.00;3090732;28;115901;-55
2021/03/18 00:50:22;;;;;;;;;;;;;;;21.67;38.68;102971.31;3087043;28;115732;-55
2021/03/18 00:51:55;;;;;;;;;;;;;;;21.68;38.56;102961.78;3087468;28;115974;-55
2021/03/18 00:53:29;;;;;;;;;;;;;;;21.66;38.71;102962.06;3111504;28;116061;-56
2021/03/18 00:55:00;;;;;;;;;;;;;;;21.65;38.95;102967.94;3099299;28;115708;-56
2021/03/18 00:56:31;;;;;;;;;;;;;;;21.64;38.77;102978.34;3090199;28;115800;-55
2021/03/18 00:58:04;;;;;;;;;;;;;;;21.64;38.69;102981.16;3075078;28;116860;-55
2021/03/18 00:59:36;;;;;;;;;;;;;;;21.62;38.77;102976.94;3086298;28;116049;-55
2021/03/18 01:01:21;;;;;;;;;;;;;;;21.61;38.87;102992.94;3087082;28;115818;-55
2021/03/18 01:02:53;;;;;;;;;;;;;;;21.59;38.60;102988.69;3086818;28;116196;-55
2021/03/18 01:04:25;;;;;;;;;;;;;;;21.58;38.50;102986.97;3097943;28;115813;-56
2021/03/18 01:06:00;;;;;;;;;;;;;;;21.56;38.87;102987.28;3110335;28;115818;-56
2021/03/18 01:07:32;;;;;;;;;;;;;;;21.55;38.79;102979.09;3099403;28;115849;-54
2021/03/18 01:09:05;;;;;;;;;;;;;;;21.54;38.76;102983.00;3087263;28;113913;-56
2021/03/18 01:10:39;;;;;;;;;;;;;;;21.52;38.95;102983.28;3090108;28;114061;-55
2021/03/18 01:12:10;;;;;;;;;;;;;;;21.50;38.78;102974.25;3091594;28;113680;-55
2021/03/18 01:13:44;;;;;;;;;;;;;;;21.49;39.06;102972.56;3086370;28;114156;-56
2021/03/18 01:15:17;;;;;;;;;;;;;;;21.48;38.97;102975.66;3098754;27;114067;-56
2021/03/18 01:16:50;;;;;;;;;;;;;;;21.45;39.12;102979.84;3094524;27;113990;-56
2021/03/18 01:18:24;;;;;;;;;;;;;;;21.45;38.97;102976.16;3092653;28;113774;-54
2021/03/18 01:19:55;;;;;;;;;;;;;;;21.42;39.29;102982.31;3085868;28;113856;-54
2021/03/18 01:21:29;;;;;;;;;;;;;;;21.42;38.93;102977.56;3085891;28;113850;-56
2021/03/18 01:23:01;;;;;;;;;;;;;;;21.42;39.36;102971.09;3110845;28;113946;-56
2021/03/18 01:24:34;;;;;;;;;;;;;;;21.38;39.35;102967.09;3089670;28;114238;-56
2021/03/18 01:26:07;;;;;;;;;;;;;;;21.38;39.53;102965.16;3086150;28;113784;-54
2021/03/18 01:27:40;;;;;;;;;;;;;;;21.36;39.43;102961.75;3098342;28;113797;-56
2021/03/18 01:29:12;;;;;;;;;;;;;;;21.35;39.45;102962.84;3085983;28;114199;-56
2021/03/18 01:30:43;;;;;;;;;;;;;;;21.34;39.53;102966.78;3090921;28;113679;-56
2021/03/18 01:32:14;;;;;;;;;;;;;;;21.30;39.65;102966.44;3098572;28;115221;-55
2021/03/18 01:33:49;;;;;;;;;;;;;;;21.27;39.23;102967.00;3092728;28;116183;-56
2021/03/18 01:35:22;;;;;;;;;;;;;;;21.27;39.23;102964.19;3086084;28;115056;-56
2021/03/18 01:36:53;;;;;;;;;;;;;;;21.27;39.64;102967.00;3097079;28;114030;-56
2021/03/18 01:38:25;;;;;;;;;;;;;;;21.25;39.53;102971.19;3089188;28;115251;-55
2021/03/18 01:39:57;;;;;;;;;;;;;;;21.25;39.32;102965.56;3086625;28;115590;-56
2021/03/18 01:41:28;;;;;;;;;;;;;;;21.24;39.29;102972.31;3085573;28;115132;-55
2021/03/18 01:43:00;;;;;;;;;;;;;;;21.21;39.35;102961.59;3087159;28;114731;-56
2021/03/18 01:44:32;;;;;;;;;;;;;;;21.21;39.25;102964.41;3086763;28;114168;-56
2021/03/18 01:46:03;;;;;;;;;;;;;;;21.17;39.50;102961.25;3086704;28;115260;-54
2021/03/18 01:47:36;;;;;;;;;;;;;;;21.17;39.40;102964.06;3087305;28;115181;-56
2021/03/18 01:49:09;;;;;;;;;;;;;;;21.17;39.48;102960.38;3086041;28;115447;-54
2021/03/18 01:50:41;;;;;;;;;;;;;;;21.15;39.65;102962.63;3086332;28;115234;-55
2021/03/18 01:52:12;;;;;;;;;;;;;;;21.17;39.59;102966.00;3107955;28;115089;-55
2021/03/18 01:53:43;;;;;;;;;;;;;;;21.13;39.47;102971.31;3102859;28;116058;-55
2021/03/18 01:55:19;;;;;;;;;;;;;;;21.14;39.58;102974.97;3103454;28;116310;-55
2021/03/18 01:56:50;;;;;;;;;;;;;;;21.10;39.54;102974.63;3112775;27;115827;-55
2021/03/18 01:58:25;;;;;;;;;;;;;;;21.10;39.53;102976.59;3089047;28;115952;-55
2021/03/18 01:59:57;;;;;;;;;;;;;;;21.11;39.52;102972.69;3094667;28;115006;-56
2021/03/18 02:01:30;;;;;;;;;;;;;;;21.08;39.68;102973.19;3086736;28;114195;-55
2021/03/18 02:03:02;;;;;;;;;;;;;;;21.06;39.31;102964.19;3110968;27;115787;-54
2021/03/18 02:04:34;;;;;;;;;;;;;;;21.05;39.33;102965.28;3093406;27;115814;-55
2021/03/18 02:06:07;;;;;;;;;;;;;;;21.05;39.36;102968.09;3085939;28;116063;-55
2021/03/18 02:07:39;;;;;;;;;;;;;;;21.03;39.64;102967.53;3097808;28;115706;-55
2021/03/18 02:09:10;;;;;;;;;;;;;;;21.02;39.71;102971.44;3084370;28;115999;-56
2021/03/18 02:10:45;;;;;;;;;;;;;;;21.02;39.66;102966.69;3086971;28;115895;-56
2021/03/18 02:12:16;;;;;;;;;;;;;;;21.02;39.40;102963.00;3094868;28;116099;-55
2021/03/18 02:13:48;;;;;;;;;;;;;;;21.01;39.42;102966.94;3090554;28;115834;-56
2021/03/18 02:15:21;;;;;;;;;;;;;;;21.00;39.41;102971.69;3099393;28;113913;-55
2021/03/18 02:16:55;;;;;;;;;;;;;;;20.99;39.51;102972.81;3098960;28;113987;-56
2021/03/18 02:18:30;;;;;;;;;;;;;;;20.97;39.77;102962.94;3087847;28;113751;-55
2021/03/18 02:20:03;;;;;;;;;;;;;;;20.98;39.90;102965.50;3082771;28;113945;-55
2021/03/18 02:21:44;;;;;;;;;;;;;;;20.97;39.61;102958.19;3081678;28;113787;-55
2021/03/18 02:23:15;;;;;;;;;;;;;;;20.96;39.73;102964.91;3086853;28;114022;-55
2021/03/18 02:24:50;;;;;;;;;;;;;;;20.92;39.76;102960.06;3087043;28;114153;-55
2021/03/18 02:26:24;;;;;;;;;;;;;;;20.92;39.85;102960.94;3086424;28;114643;-55
2021/03/18 02:27:56;;;;;;;;;;;;;;;20.90;39.75;102949.09;3086551;28;114025;-54
2021/03/18 02:29:30;;;;;;;;;;;;;;;20.87;40.13;102941.19;3102960;27;113817;-55
2021/03/18 02:31:06;;;;;;;;;;;;;;;20.87;39.85;102941.19;3090441;28;113938;-55
2021/03/18 02:32:38;;;;;;;;;;;;;;;20.88;39.85;102936.41;3098271;28;113812;-55
2021/03/18 02:34:13;;;;;;;;;;;;;;;20.88;40.06;102942.03;3089990;28;113713;-55
2021/03/18 02:35:48;;;;;;;;;;;;;;;20.88;40.32;102936.41;3090018;28;113771;-55
2021/03/18 02:37:21;;;;;;;;;;;;;;;20.83;39.99;102929.63;3105768;28;115330;-55
2021/03/18 02:38:53;;;;;;;;;;;;;;;20.84;39.98;102925.72;3087704;28;115373;-55
2021/03/18 02:40:26;;;;;;;;;;;;;;;20.82;40.37;102922.31;3088757;28;115171;-55
2021/03/18 02:41:59;;;;;;;;;;;;;;;20.80;40.23;102915.25;3084058;28;115396;-55
2021/03/18 02:43:34;;;;;;;;;;;;;;;20.79;40.14;102916.38;3099504;28;115344;-55
2021/03/18 02:45:08;;;;;;;;;;;;;;;20.78;40.55;102915.53;3091818;28;113761;-55
2021/03/18 02:46:40;;;;;;;;;;;;;;;20.78;40.46;102914.66;3088317;28;115346;-55
2021/03/18 02:48:17;;;;;;;;;;;;;;;20.75;40.74;102916.06;3091438;28;115020;-55
2021/03/18 02:49:51;;;;;;;;;;;;;;;20.76;40.35;102916.88;3106349;28;114140;-55
2021/03/18 02:51:24;;;;;;;;;;;;;;;20.74;40.41;102919.13;3107283;27;115164;-55
2021/03/18 02:52:58;;;;;;;;;;;;;;;20.73;40.41;102917.41;3087839;28;115263;-55
2021/03/18 02:54:33;;;;;;;;;;;;;;;20.72;40.58;102922.19;3088484;28;115032;-55
2021/03/18 02:56:05;;;;;;;;;;;;;;;20.71;40.54;102906.47;3088732;28;115208;-55
2021/03/18 02:57:40;;;;;;;;;;;;;;;20.68;40.39;102908.91;3090972;28;113613;-56
2021/03/18 02:59:13;;;;;;;;;;;;;;;20.68;40.60;102909.78;3088468;28;115715;-55
2021/03/18 03:00:47;;;;;;;;;;;;;;;20.68;40.80;102914.53;3088221;28;116360;-56
2021/03/18 03:02:23;;;;;;;;;;;;;;;20.65;40.66;102910.31;3088035;28;116025;-55
2021/03/18 03:03:56;;;;;;;;;;;;;;;20.65;41.15;102910.31;3087696;28;115701;-55
2021/03/18 03:05:29;;;;;;;;;;;;;;;20.63;41.21;102911.66;3099634;28;115610;-55
2021/03/18 03:07:01;;;;;;;;;;;;;;;20.65;40.68;102917.88;3088562;28;115530;-55
2021/03/18 03:08:33;;;;;;;;;;;;;;;20.62;40.78;102913.66;3087509;28;116408;-55
2021/03/18 03:10:06;;;;;;;;;;;;;;;20.62;40.78;102913.66;3099793;28;115687;-56
2021/03/18 03:11:39;;;;;;;;;;;;;;;20.59;40.88;102908.53;3081198;28;115739;-56
2021/03/18 03:13:11;;;;;;;;;;;;;;;20.59;41.07;102908.53;3112030;28;115951;-54
2021/03/18 03:14:45;;;;;;;;;;;;;;;20.58;40.88;102906.81;3095501;28;115851;-56
2021/03/18 03:16:19;;;;;;;;;;;;;;;20.59;40.83;102904.88;3087297;28;115863;-55
2021/03/18 03:17:52;;;;;;;;;;;;;;;20.57;41.08;102899.53;3088345;28;115641;-55
2021/03/18 03:19:23;;;;;;;;;;;;;;;20.55;40.97;102898.94;3090368;28;115934;-56
2021/03/18 03:20:56;;;;;;;;;;;;;;;20.54;41.02;102896.38;3094587;28;115840;-55
2021/03/18 03:22:28;;;;;;;;;;;;;;;20.54;40.98;102899.19;3087604;28;114540;-56
2021/03/18 03:24:01;;;;;;;;;;;;;;;20.53;40.95;102895.56;3100063;28;113958;-54
2021/03/18 03:25:35;;;;;;;;;;;;;;;20.52;40.85;102907.88;3091358;28;113960;-55
2021/03/18 03:27:07;;;;;;;;;;;;;;;20.50;40.92;102914.84;3114996;27;113902;-56
2021/03/18 03:28:40;;;;;;;;;;;;;;;20.51;40.74;102909.00;3095350;28;114142;-54
2021/03/18 03:30:14;;;;;;;;;;;;;;;20.50;40.56;102912.06;3087970;28;114099;-56
2021/03/18 03:34:22;;;;;;;;;;;;;;;20.48;40.91;102912.34;3080571;28;113607;-55
2021/03/18 03:35:55;;;;;;;;;;;;;;;20.46;40.87;102902.44;3088323;28;113969;-55
2021/03/18 03:37:27;;;;;;;;;;;;;;;20.44;41.02;102905.53;3111540;27;113797;-55
2021/03/18 03:38:59;;;;;;;;;;;;;;;20.44;40.86;102905.53;3095447;28;113878;-54
2021/03/18 03:40:30;;;;;;;;;;;;;;;20.42;40.99;102907.75;3111556;28;113895;-55
2021/03/18 03:42:04;;;;;;;;;;;;;;;20.40;40.81;102899.56;3091012;28;113747;-55
2021/03/18 03:43:35;;;;;;;;;;;;;;;20.39;41.08;102891.44;3095549;28;113879;-55
2021/03/18 03:45:09;;;;;;;;;;;;;;;20.38;41.14;102895.34;3111532;28;115063;-55
2021/03/18 03:46:46;;;;;;;;;;;;;;;20.39;40.99;102899.84;3094037;28;115221;-55
2021/03/18 03:48:19;;;;;;;;;;;;;;;20.38;40.94;102903.75;3089699;28;114011;-55
2021/03/18 03:49:51;;;;;;;;;;;;;;;20.36;40.95;102912.44;3093263;28;115363;-55
2021/03/18 03:51:22;;;;;;;;;;;;;;;20.37;40.95;102902.06;3111381;27;115248;-55
2021/03/18 03:52:57;;;;;;;;;;;;;;;20.36;40.91;102898.41;3095248;28;115322;-54
2021/03/18 03:54:29;;;;;;;;;;;;;;;20.35;40.93;102899.50;3087759;28;115024;-54
2021/03/18 03:56:01;;;;;;;;;;;;;;;20.33;40.80;102896.13;3097521;28;115414;-55
2021/03/18 03:57:36;;;;;;;;;;;;;;;20.32;40.73;102902.84;3091142;28;115029;-54
2021/03/18 03:59:12;;;;;;;;;;;;;;;20.31;40.68;102895.50;3119423;27;115023;-55
2021/03/18 04:00:44;;;;;;;;;;;;;;;20.33;40.79;102892.47;3097117;27;115200;-55
2021/03/18 04:02:16;;;;;;;;;;;;;;;20.30;40.57;102890.19;3089396;28;114169;-54
2021/03/18 04:03:47;;;;;;;;;;;;;;;20.28;40.84;102886.72;3086194;28;115220;-55
2021/03/18 04:05:20;;;;;;;;;;;;;;;20.27;40.98;102885.03;3098081;28;115126;-55
2021/03/18 04:06:54;;;;;;;;;;;;;;;20.26;41.13;102878.56;3093522;28;115837;-54
2021/03/18 04:08:26;;;;;;;;;;;;;;;20.25;40.75;102885.31;3107277;27;114581;-55
2021/03/18 04:09:59;;;;;;;;;;;;;;;20.23;40.98;102881.91;3091056;28;115913;-55
2021/03/18 04:11:33;;;;;;;;;;;;;;;20.22;40.79;102877.38;3097622;28;116218;-55
2021/03/18 04:13:05;;;;;;;;;;;;;;;20.21;40.91;102883.28;3090725;28;115683;-55
2021/03/18 04:14:37;;;;;;;;;;;;;;;20.22;40.91;102876.53;3086479;28;114865;-54
2021/03/18 04:16:10;;;;;;;;;;;;;;;20.22;41.10;102890.56;3087495;28;115807;-55
2021/03/18 04:17:43;;;;;;;;;;;;;;;20.19;41.25;102875.09;3090940;28;115999;-54
2021/03/18 04:19:17;;;;;;;;;;;;;;;20.18;41.36;102870.59;3086827;28;116546;-55
2021/03/18 04:20:49;;;;;;;;;;;;;;;20.20;40.98;102875.97;3110942;28;115870;-54
2021/03/18 04:22:21;;;;;;;;;;;;;;;20.19;41.21;102879.88;3091060;28;115705;-54
2021/03/18 04:23:53;;;;;;;;;;;;;;;20.17;41.10;102873.69;3083724;28;115848;-55
2021/03/18 04:25:26;;;;;;;;;;;;;;;20.17;41.29;102877.31;3106377;27;115641;-54
2021/03/18 04:26:59;;;;;;;;;;;;;;;20.16;41.36;102878.44;3102113;27;115750;-55
2021/03/18 04:28:33;;;;;;;;;;;;;;;20.16;41.52;102888.81;3087298;28;113811;-55
2021/03/18 04:30:06;;;;;;;;;;;;;;;20.16;41.44;102884.06;3087235;28;114010;-55
2021/03/18 04:31:39;;;;;;;;;;;;;;;20.12;41.58;102877.28;3107101;27;113979;-55
2021/03/18 04:33:11;;;;;;;;;;;;;;;20.11;41.77;102871.91;3104865;27;113818;-55
2021/03/18 04:34:43;;;;;;;;;;;;;;;20.11;41.45;102872.75;3090321;28;115595;-55
2021/03/18 04:36:15;;;;;;;;;;;;;;;20.10;41.53;102873.00;3098523;28;113843;-56
2021/03/18 04:37:48;;;;;;;;;;;;;;;20.10;41.75;102871.06;3096876;28;113757;-54
2021/03/18 04:39:20;;;;;;;;;;;;;;;20.10;41.71;102870.19;3086686;28;113822;-55
2021/03/18 04:40:52;;;;;;;;;;;;;;;20.08;41.55;102864.00;3091609;28;113963;-56
2021/03/18 04:42:23;;;;;;;;;;;;;;;20.07;41.68;102863.16;3111369;27;114064;-56
2021/03/18 04:43:57;;;;;;;;;;;;;;;20.06;41.77;102861.44;3091476;28;113834;-55
2021/03/18 04:45:30;;;;;;;;;;;;;;;20.05;41.34;102864.50;3109869;27;114029;-55
2021/03/18 04:47:02;;;;;;;;;;;;;;;20.06;41.64;102860.59;3077543;28;113977;-55
2021/03/18 04:48:34;;;;;;;;;;;;;;;20.05;41.66;102851.34;3082377;28;113761;-55
2021/03/18 04:50:07;;;;;;;;;;;;;;;20.03;41.71;102849.91;3090877;28;113626;-54
2021/03/18 04:51:40;;;;;;;;;;;;;;;20.04;42.09;102851.59;3093476;28;115186;-54
2021/03/18 04:53:12;;;;;;;;;;;;;;;20.01;41.84;102846.50;3088326;28;116012;-56
2021/03/18 04:54:44;;;;;;;;;;;;;;;19.99;41.89;102844.78;3083379;28;115323;-55
2021/03/18 04:56:18;;;;;;;;;;;;;;;20.01;42.18;102850.16;3081914;28;115181;-54
2021/03/18 04:57:54;;;;;;;;;;;;;;;20.00;41.81;102845.66;3109812;27;115205;-54
2021/03/18 04:59:26;;;;;;;;;;;;;;;19.99;42.13;102853.22;3082934;28;115568;-55
2021/03/18 05:00:59;;;;;;;;;;;;;;;19.98;42.03;102854.34;3086383;28;115262;-55
2021/03/18 05:02:32;;;;;;;;;;;;;;;19.98;41.92;102845.06;3087094;28;115043;-55
2021/03/18 05:04:16;;;;;;;;;;;;;;;19.97;41.92;102855.44;3092347;28;115146;-55
2021/03/18 05:05:50;;;;;;;;;;;;;;;19.95;42.10;102854.84;3105167;28;115002;-55
2021/03/18 05:07:22;;;;;;;;;;;;;;;19.95;41.96;102856.78;3089299;28;115881;-55
2021/03/18 05:08:55;;;;;;;;;;;;;;;19.92;41.74;102846.94;3093868;28;115671;-56
2021/03/18 05:10:28;;;;;;;;;;;;;;;19.92;41.86;102846.94;3083101;28;115279;-55
2021/03/18 05:12:00;;;;;;;;;;;;;;;19.92;41.87;102844.13;3093503;28;114008;-55
2021/03/18 05:13:32;;;;;;;;;;;;;;;19.90;41.99;102842.69;3107000;27;116566;-54
2021/03/18 05:15:05;;;;;;;;;;;;;;;19.89;41.91;102850.28;3099144;27;115968;-54
2021/03/18 05:16:36;;;;;;;;;;;;;;;19.88;42.00;102845.78;3092800;28;115930;-54
2021/03/18 05:18:10;;;;;;;;;;;;;;;19.87;41.88;102852.47;3110410;27;116722;-56
2021/03/18 05:19:43;;;;;;;;;;;;;;;19.87;41.82;102849.66;3089057;28;115812;-56
2021/03/18 05:21:14;;;;;;;;;;;;;;;19.87;42.18;102852.47;3085356;28;115532;-55
2021/03/18 05:22:47;;;;;;;;;;;;;;;19.84;41.92;102847.41;3086722;28;115467;-55
2021/03/18 05:24:19;;;;;;;;;;;;;;;19.85;42.00;102842.63;3110581;27;115815;-56
2021/03/18 05:25:50;;;;;;;;;;;;;;;19.84;42.12;102850.19;3101963;28;115836;-55
2021/03/18 05:27:23;;;;;;;;;;;;;;;19.85;41.92;102846.25;3089994;28;115938;-55
2021/03/18 05:28:55;;;;;;;;;;;;;;;19.84;41.91;102838.13;3086580;28;114490;-54
2021/03/18 05:30:27;;;;;;;;;;;;;;;19.84;42.01;102838.13;3086513;28;115907;-54
2021/03/18 05:32:01;;;;;;;;;;;;;;;19.82;42.16;102841.19;3096341;28;115657;-55
2021/03/18 05:33:32;;;;;;;;;;;;;;;19.85;42.38;102839.81;3106965;28;116532;-55
2021/03/18 05:35:07;;;;;;;;;;;;;;;19.88;42.43;102840.16;3094729;28;113765;-56
2021/03/18 05:36:39;;;;;;;;;;;;;;;19.89;42.44;102833.44;3109606;27;113869;-54
2021/03/18 05:38:11;;;;;;;;;;;;;;;19.92;42.39;102837.69;3112071;27;114273;-54
2021/03/18 05:39:42;;;;;;;;;;;;;;;19.95;42.20;102837.16;3109386;27;113627;-55
2021/03/18 05:41:14;;;;;;;;;;;;;;;19.98;42.98;102839.47;3088672;28;114318;-54
2021/03/18 05:42:47;;;;;;;;;;;;;;;20.00;42.68;102837.22;3088464;28;113670;-55
2021/03/18 05:44:18;;;;;;;;;;;;;;;20.03;42.56;102844.28;3119085;27;113858;-55
2021/03/18 05:45:51;;;;;;;;;;;;;;;20.04;42.79;102835.59;3087154;28;113914;-55
2021/03/18 05:47:23;;;;;;;;;;;;;;;20.08;42.40;102828.34;3098259;28;114056;-54
2021/03/18 05:48:56;;;;;;;;;;;;;;;20.12;42.78;102823.94;3102110;28;113973;-55
2021/03/18 05:50:28;;;;;;;;;;;;;;;20.16;43.23;102827.06;3088426;28;113856;-54
2021/03/18 05:52:00;;;;;;;;;;;;;;;20.20;43.34;102822.63;3086875;28;113710;-55
2021/03/18 05:53:32;;;;;;;;;;;;;;;20.24;42.88;102824.66;3089448;28;113624;-56
2021/03/18 05:55:05;;;;;;;;;;;;;;;20.29;42.90;102819.13;3088371;28;114233;-55
2021/03/18 05:56:38;;;;;;;;;;;;;;;20.35;42.74;102820.06;3087036;28;115257;-56
2021/03/18 05:58:11;;;;;;;;;;;;;;;20.39;42.46;102815.63;3101967;28;115070;-56
2021/03/18 05:59:46;;;;;;;;;;;;;;;20.44;42.51;102815.69;3101711;28;115224;-55
2021/03/18 06:01:19;;;;;;;;;;;;;;;20.50;42.27;102813.75;3101790;28;114075;-55
2021/03/18 06:02:51;;;;;;;;;;;;;;;20.54;42.93;102824.22;3115426;27;114987;-55
2021/03/18 06:04:23;;;;;;;;;;;;;;;20.59;42.25;102815.00;3099153;27;115694;-56
2021/03/18 06:05:54;;;;;;;;;;;;;;;20.64;41.79;102815.91;3119601;27;115311;-55
2021/03/18 06:07:26;;;;;;;;;;;;;;;20.69;41.86;102813.16;3090951;28;115372;-54
2021/03/18 06:08:57;;;;;;;;;;;;;;;20.73;43.16;102811.50;3085986;28;115198;-55
2021/03/18 06:10:29;;;;;;;;;;;;;;;20.78;42.14;102803.16;3091782;28;114043;-54
2021/03/18 06:12:02;;;;;;;;;;;;;;;20.84;42.07;102806.88;3091277;28;115710;-55
2021/03/18 06:13:34;;;;;;;;;;;;;;;20.88;42.01;102809.97;3090766;28;115048;-55
2021/03/18 06:15:08;;;;;;;;;;;;;;;20.94;41.78;102809.75;3099033;28;114232;-54
2021/03/18 06:16:40;;;;;;;;;;;;;;;20.97;41.90;102803.63;3106433;28;115155;-55
2021/03/18 06:18:13;;;;;;;;;;;;;;;21.02;41.78;102806.47;3093355;28;116696;-55
2021/03/18 06:19:44;;;;;;;;;;;;;;;21.07;41.34;102800.06;3117973;27;115886;-55
2021/03/18 06:21:17;;;;;;;;;;;;;;;21.11;41.38;102807.69;3093983;27;115916;-55
2021/03/18 06:22:50;;;;;;;;;;;;;;;21.16;41.27;102815.34;3088403;28;115824;-55
2021/03/18 06:24:23;;;;;;;;;;;;;;;21.20;41.60;102813.69;3093152;28;115942;-54
2021/03/18 06:25:55;;;;;;;;;;;;;;;21.24;41.17;102817.66;3121108;27;116106;-56
2021/03/18 06:27:27;;;;;;;;;;;;;;;21.28;41.07;102822.50;3104761;27;115726;-55
2021/03/18 06:28:59;;;;;;;;;;;;;;;21.34;41.29;102817.75;3112472;27;116074;-56
2021/03/18 06:30:31;;;;;;;;;;;;;;;21.37;41.12;102822.84;3104039;27;114540;-55
2021/03/18 06:32:07;;;;;;;;;;;;;;;21.41;40.84;102824.00;3093017;28;115715;-56
2021/03/18 06:33:42;;;;;;;;;;;;;;;21.46;41.00;102806.31;3095197;28;116067;-55
2021/03/18 06:35:28;;;;;;;;;;;;;;;21.51;40.82;102815.66;3100262;28;115780;-55
2021/03/18 06:36:59;;;;;;;;;;;;;;;21.53;40.70;102813.38;3087309;28;115868;-56
2021/03/18 06:38:32;;;;;;;;;;;;;;;21.58;40.95;102816.25;3093806;28;116118;-56
2021/03/18 06:40:06;;;;;;;;;;;;;;;21.62;40.73;102814.59;3094114;28;114867;-55
2021/03/18 06:41:39;;;;;;;;;;;;;;;21.65;40.48;102811.25;3091744;28;113717;-56
2021/03/18 06:43:11;;;;;;;;;;;;;;;21.68;40.38;102816.31;3112286;27;114045;-55
2021/03/18 06:44:44;;;;;;;;;;;;;;;21.72;40.47;102809.03;3090152;28;113864;-56
2021/03/18 06:46:18;;;;;;;;;;;;;;;21.77;40.24;102813.84;3109070;27;113864;-56
2021/03/18 06:47:52;;;;;;;;;;;;;;;21.80;40.17;102807.69;3100304;27;113787;-55
2021/03/18 06:49:25;;;;;;;;;;;;;;;21.84;40.27;102813.63;3091499;28;113911;-55
2021/03/18 06:50:56;;;;;;;;;;;;;;;21.88;40.32;102811.94;3092513;28;114199;-57
2021/03/18 06:52:35;;;;;;;;;;;;;;;21.91;39.93;102812.25;3091095;28;113887;-55
2021/03/18 06:54:09;;;;;;;;;;;;;;;21.94;39.91;102811.72;3105722;27;113739;-54
2021/03/18 06:55:41;;;;;;;;;;;;;;;21.98;40.11;102812.06;3095173;28;113724;-55
2021/03/18 06:57:18;;;;;;;;;;;;;;;22.01;39.76;102798.28;3088672;28;113731;-56
2021/03/18 06:58:49;;;;;;;;;;;;;;;22.05;40.07;102804.19;3110449;28;113822;-56
2021/03/18 07:00:33;;;;;;;;;;;;;;;22.07;40.00;102802.81;3088473;27;113890;-56
2021/03/18 07:02:09;;;;;;;;;;;;;;;22.10;39.76;102799.44;3103364;28;113909;-56
2021/03/18 07:03:41;;;;;;;;;;;;;;;22.14;39.79;102797.78;3086467;28;113990;-56
2021/03/18 07:05:15;;;;;;;;;;;;;;;22.17;39.72;102796.34;3112120;27;115344;-55
2021/03/18 07:06:51;;;;;;;;;;;;;;;22.21;39.67;102797.53;3094724;28;115855;-55
2021/03/18 07:08:24;;;;;;;;;;;;;;;22.24;40.03;102798.94;3108723;27;115091;-55
2021/03/18 07:09:57;;;;;;;;;;;;;;;22.28;39.88;102806.56;3097024;28;115133;-56
2021/03/18 07:11:29;;;;;;;;;;;;;;;22.30;39.98;102798.69;3087577;28;115206;-55
2021/03/18 07:13:03;;;;;;;;;;;;;;;22.33;39.66;102800.94;3097637;28;115327;-56
2021/03/18 07:14:37;;;;;;;;;;;;;;;22.37;39.68;102793.63;3094381;28;114960;-54
2021/03/18 07:16:10;;;;;;;;;;;;;;;22.39;39.74;102794.22;3108573;27;115299;-55
2021/03/18 07:17:41;;;;;;;;;;;;;;;22.42;39.67;102795.63;3103353;28;115251;-54
2021/03/18 07:19:17;;;;;;;;;;;;;;;22.45;39.27;102783.78;3090161;28;115638;-55
2021/03/18 07:20:51;;;;;;;;;;;;;;;22.48;39.77;102784.13;3094437;28;115347;-56
2021/03/18 07:22:23;;;;;;;;;;;;;;;22.50;39.77;102775.38;3086280;28;115063;-56
2021/03/18 07:23:54;;;;;;;;;;;;;;;22.54;39.44;102782.13;3086415;28;115056;-56
2021/03/18 07:25:27;;;;;;;;;;;;;;;22.57;39.37;102784.41;3089254;28;115708;-54
2021/03/18 07:27:07;;;;;;;;;;;;;;;22.58;39.49;102784.13;3087526;28;116137;-56
2021/03/18 07:28:41;;;;;;;;;;;;;;;22.62;39.65;102787.25;3087806;28;116547;-55
2021/03/18 07:30:23;;;;;;;;;;;;;;;22.66;39.44;102784.72;3099715;28;116201;-54
2021/03/18 07:31:55;;;;;;;;;;;;;;;22.68;39.47;102790.91;3088498;28;115838;-55
2021/03/18 07:33:27;;;;;;;;;;;;;;;22.71;39.20;102787.59;3115725;27;115917;-55
2021/03/18 07:35:01;;;;;;;;;;;;;;;22.72;39.12;102790.09;3099192;27;118069;-56
2021/03/18 07:36:33;;;;;;;;;;;;;;;22.73;38.86;102788.13;3087142;28;114745;-54
2021/03/18 07:38:05;;;;;;;;;;;;;;;22.75;39.18;102788.72;3090089;28;115772;-55
2021/03/18 07:39:38;;;;;;;;;;;;;;;22.75;38.92;102789.56;3094363;28;115759;-56
2021/03/18 07:41:12;;;;;;;;;;;;;;;22.77;39.07;102786.44;3101453;28;117796;-55
2021/03/18 07:42:43;;;;;;;;;;;;;;;22.78;38.95;102782.50;3094216;28;115930;-55
2021/03/18 07:44:15;;;;;;;;;;;;;;;22.77;38.96;102781.66;3086674;28;115853;-56
2021/03/18 07:45:47;;;;;;;;;;;;;;;22.77;38.93;102780.81;3099186;28;116114;-56
2021/03/18 07:47:19;;;;;;;;;;;;;;;22.78;38.85;102776.88;3094327;28;113880;-56
2021/03/18 07:48:54;;;;;;;;;;;;;;;22.78;38.90;102766.44;3093402;28;113944;-54
2021/03/18 07:50:34;;;;;;;;;;;;;;;22.79;38.93;102779.41;3087083;28;114099;-55
2021/03/18 07:52:09;;;;;;;;;;;;;;;22.78;38.87;102772.09;3082906;28;114041;-56
2021/03/18 07:53:44;;;;;;;;;;;;;;;22.77;38.56;102775.16;3087630;28;113781;-55
2021/03/18 07:55:19;;;;;;;;;;;;;;;22.75;38.74;102771.81;3083967;28;113710;-55